sensor_id;sensor_type;location;lat;lon;timestamp;P1;durP1;ratioP1;P2;durP2;ratioP2
31618;SDS011;18230;51.502;7.108;2023-07-20T00:02:39;6.95;;;2.90;;
31618;SDS011;18230;51.502;7.108;2023-07-20T00:07:40;8.48;;;3.72;;
31618;SDS011;18230;51.502;7.108;2023-07-20T00:12:40;11.57;;;3.90;;
31618;SDS011;18230;51.502;7.108;2023-07-20T00:17:41;7.60;;;3.28;;
31618;SDS011;18230;51.502;7.108;2023-07-20T00:22:42;9.02;;;3.90;;
31618;SDS011;18230;51.502;7.108;2023-07-20T00:27:42;10.07;;;3.50;;
31618;SDS011;18230;51.502;7.108;2023-07-20T00:32:43;10.75;;;3.45;;
31618;SDS011;18230;51.502;7.108;2023-07-20T00:37:44;10.55;;;3.50;;
31618;SDS011;18230;51.502;7.108;2023-07-20T00:42:44;8.07;;;3.78;;
31618;SDS011;18230;51.502;7.108;2023-07-20T00:47:45;8.88;;;3.75;;
31618;SDS011;18230;51.502;7.108;2023-07-20T00:52:46;8.57;;;3.83;;
31618;SDS011;18230;51.502;7.108;2023-07-20T00:57:47;9.48;;;4.00;;
31618;SDS011;18230;51.502;7.108;2023-07-20T01:02:48;13.25;;;4.95;;
31618;SDS011;18230;51.502;7.108;2023-07-20T01:07:58;10.55;;;4.60;;
31618;SDS011;18230;51.502;7.108;2023-07-20T01:13:02;8.85;;;4.32;;
31618;SDS011;18230;51.502;7.108;2023-07-20T01:18:05;11.05;;;4.28;;
31618;SDS011;18230;51.502;7.108;2023-07-20T01:23:21;11.52;;;4.05;;
31618;SDS011;18230;51.502;7.108;2023-07-20T01:28:48;13.43;;;4.10;;
31618;SDS011;18230;51.502;7.108;2023-07-20T01:33:57;8.77;;;3.75;;
31618;SDS011;18230;51.502;7.108;2023-07-20T01:39:00;9.32;;;3.95;;
31618;SDS011;18230;51.502;7.108;2023-07-20T01:44:03;10.38;;;4.45;;
31618;SDS011;18230;51.502;7.108;2023-07-20T01:49:04;11.38;;;4.55;;
31618;SDS011;18230;51.502;7.108;2023-07-20T01:54:05;7.13;;;4.20;;
31618;SDS011;18230;51.502;7.108;2023-07-20T01:59:06;6.32;;;3.70;;
31618;SDS011;18230;51.502;7.108;2023-07-20T02:04:09;7.40;;;4.07;;
31618;SDS011;18230;51.502;7.108;2023-07-20T02:09:10;9.60;;;3.38;;
31618;SDS011;18230;51.502;7.108;2023-07-20T02:14:11;14.15;;;4.53;;
31618;SDS011;18230;51.502;7.108;2023-07-20T02:19:13;11.73;;;5.15;;
31618;SDS011;18230;51.502;7.108;2023-07-20T02:24:14;12.63;;;5.85;;
31618;SDS011;18230;51.502;7.108;2023-07-20T02:29:27;15.77;;;8.70;;
31618;SDS011;18230;51.502;7.108;2023-07-20T02:34:28;20.23;;;8.80;;
31618;SDS011;18230;51.502;7.108;2023-07-20T02:39:29;19.92;;;9.48;;
31618;SDS011;18230;51.502;7.108;2023-07-20T02:44:29;16.15;;;9.73;;
31618;SDS011;18230;51.502;7.108;2023-07-20T02:49:30;17.67;;;9.90;;
31618;SDS011;18230;51.502;7.108;2023-07-20T02:54:31;19.40;;;10.80;;
31618;SDS011;18230;51.502;7.108;2023-07-20T02:59:32;20.98;;;9.63;;
31618;SDS011;18230;51.502;7.108;2023-07-20T03:04:32;17.42;;;10.10;;
31618;SDS011;18230;51.502;7.108;2023-07-20T03:09:33;16.90;;;10.43;;
31618;SDS011;18230;51.502;7.108;2023-07-20T03:14:34;19.35;;;12.30;;
31618;SDS011;18230;51.502;7.108;2023-07-20T03:19:35;21.73;;;13.13;;
31618;SDS011;18230;51.502;7.108;2023-07-20T03:24:35;21.52;;;13.52;;
31618;SDS011;18230;51.502;7.108;2023-07-20T03:29:36;22.15;;;15.05;;
31618;SDS011;18230;51.502;7.108;2023-07-20T03:34:37;25.02;;;15.80;;
31618;SDS011;18230;51.502;7.108;2023-07-20T03:39:37;25.88;;;15.95;;
31618;SDS011;18230;51.502;7.108;2023-07-20T03:44:38;28.13;;;18.10;;
31618;SDS011;18230;51.502;7.108;2023-07-20T03:49:39;27.27;;;16.92;;
31618;SDS011;18230;51.502;7.108;2023-07-20T03:54:39;23.88;;;14.35;;
31618;SDS011;18230;51.502;7.108;2023-07-20T03:59:44;23.67;;;14.98;;
31618;SDS011;18230;51.502;7.108;2023-07-20T04:04:46;30.13;;;20.02;;
31618;SDS011;18230;51.502;7.108;2023-07-20T04:09:46;29.45;;;19.30;;
31618;SDS011;18230;51.502;7.108;2023-07-20T04:14:47;33.35;;;20.58;;
31618;SDS011;18230;51.502;7.108;2023-07-20T04:19:48;27.38;;;19.40;;
31618;SDS011;18230;51.502;7.108;2023-07-20T04:24:48;25.98;;;18.40;;
31618;SDS011;18230;51.502;7.108;2023-07-20T04:29:49;22.35;;;16.48;;
31618;SDS011;18230;51.502;7.108;2023-07-20T04:34:50;22.00;;;15.90;;
31618;SDS011;18230;51.502;7.108;2023-07-20T04:39:50;27.63;;;17.40;;
31618;SDS011;18230;51.502;7.108;2023-07-20T04:44:51;23.35;;;16.10;;
31618;SDS011;18230;51.502;7.108;2023-07-20T04:49:51;26.20;;;17.23;;
31618;SDS011;18230;51.502;7.108;2023-07-20T04:54:52;23.17;;;15.85;;
31618;SDS011;18230;51.502;7.108;2023-07-20T04:59:53;22.98;;;16.27;;
31618;SDS011;18230;51.502;7.108;2023-07-20T05:04:53;19.20;;;13.18;;
31618;SDS011;18230;51.502;7.108;2023-07-20T05:09:54;18.67;;;14.23;;
31618;SDS011;18230;51.502;7.108;2023-07-20T05:14:55;18.42;;;13.52;;
31618;SDS011;18230;51.502;7.108;2023-07-20T05:19:56;19.65;;;14.77;;
31618;SDS011;18230;51.502;7.108;2023-07-20T05:24:56;17.80;;;12.40;;
31618;SDS011;18230;51.502;7.108;2023-07-20T05:29:57;14.93;;;11.35;;
31618;SDS011;18230;51.502;7.108;2023-07-20T05:34:58;15.40;;;12.30;;
31618;SDS011;18230;51.502;7.108;2023-07-20T05:39:59;15.18;;;11.98;;
31618;SDS011;18230;51.502;7.108;2023-07-20T05:45:00;17.42;;;13.65;;
31618;SDS011;18230;51.502;7.108;2023-07-20T05:50:00;16.80;;;12.52;;
31618;SDS011;18230;51.502;7.108;2023-07-20T05:55:01;14.00;;;11.18;;
31618;SDS011;18230;51.502;7.108;2023-07-20T06:00:03;18.50;;;12.45;;
31618;SDS011;18230;51.502;7.108;2023-07-20T06:05:04;15.70;;;11.07;;
31618;SDS011;18230;51.502;7.108;2023-07-20T06:10:06;14.10;;;9.60;;
31618;SDS011;18230;51.502;7.108;2023-07-20T06:15:16;10.13;;;7.28;;
31618;SDS011;18230;51.502;7.108;2023-07-20T06:20:25;8.90;;;4.75;;
31618;SDS011;18230;51.502;7.108;2023-07-20T06:25:26;7.95;;;4.95;;
31618;SDS011;18230;51.502;7.108;2023-07-20T06:30:27;6.30;;;5.70;;
31618;SDS011;18230;51.502;7.108;2023-07-20T06:35:28;5.22;;;4.72;;
31618;SDS011;18230;51.502;7.108;2023-07-20T06:40:29;7.65;;;6.35;;
31618;SDS011;18230;51.502;7.108;2023-07-20T06:45:30;9.05;;;6.60;;
31618;SDS011;18230;51.502;7.108;2023-07-20T06:50:31;6.72;;;4.43;;
31618;SDS011;18230;51.502;7.108;2023-07-20T06:55:32;6.43;;;5.45;;
31618;SDS011;18230;51.502;7.108;2023-07-20T07:00:32;4.93;;;4.43;;
31618;SDS011;18230;51.502;7.108;2023-07-20T07:05:36;4.07;;;2.78;;
31618;SDS011;18230;51.502;7.108;2023-07-20T07:10:37;6.10;;;5.50;;
31618;SDS011;18230;51.502;7.108;2023-07-20T07:15:38;10.88;;;7.88;;
31618;SDS011;18230;51.502;7.108;2023-07-20T07:20:39;10.52;;;9.30;;
31618;SDS011;18230;51.502;7.108;2023-07-20T07:25:39;12.23;;;9.02;;
31618;SDS011;18230;51.502;7.108;2023-07-20T07:30:42;13.60;;;10.85;;
31618;SDS011;18230;51.502;7.108;2023-07-20T07:35:43;11.80;;;10.60;;
31618;SDS011;18230;51.502;7.108;2023-07-20T07:40:43;13.13;;;11.50;;
31618;SDS011;18230;51.502;7.108;2023-07-20T07:45:44;18.88;;;14.95;;
31618;SDS011;18230;51.502;7.108;2023-07-20T07:50:45;19.05;;;17.05;;
31618;SDS011;18230;51.502;7.108;2023-07-20T07:55:47;20.98;;;18.67;;
31618;SDS011;18230;51.502;7.108;2023-07-20T08:00:48;18.63;;;15.48;;
31618;SDS011;18230;51.502;7.108;2023-07-20T08:05:49;20.15;;;16.08;;
31618;SDS011;18230;51.502;7.108;2023-07-20T08:10:52;20.00;;;16.67;;
31618;SDS011;18230;51.502;7.108;2023-07-20T08:15:57;19.02;;;15.88;;
31618;SDS011;18230;51.502;7.108;2023-07-20T08:20:59;18.48;;;16.55;;
31618;SDS011;18230;51.502;7.108;2023-07-20T08:26:00;12.52;;;9.85;;
31618;SDS011;18230;51.502;7.108;2023-07-20T08:31:01;10.55;;;7.40;;
31618;SDS011;18230;51.502;7.108;2023-07-20T08:36:02;11.55;;;9.48;;
31618;SDS011;18230;51.502;7.108;2023-07-20T08:41:03;11.27;;;10.02;;
31618;SDS011;18230;51.502;7.108;2023-07-20T08:46:04;11.15;;;9.50;;
31618;SDS011;18230;51.502;7.108;2023-07-20T08:51:05;9.63;;;8.73;;
31618;SDS011;18230;51.502;7.108;2023-07-20T08:56:06;9.38;;;7.20;;
31618;SDS011;18230;51.502;7.108;2023-07-20T09:01:10;6.20;;;5.60;;
31618;SDS011;18230;51.502;7.108;2023-07-20T09:06:15;4.43;;;3.97;;
31618;SDS011;18230;51.502;7.108;2023-07-20T09:11:16;4.75;;;4.15;;
31618;SDS011;18230;51.502;7.108;2023-07-20T09:16:17;5.07;;;4.05;;
31618;SDS011;18230;51.502;7.108;2023-07-20T09:21:18;3.10;;;2.78;;
31618;SDS011;18230;51.502;7.108;2023-07-20T09:26:19;2.33;;;1.90;;
31618;SDS011;18230;51.502;7.108;2023-07-20T09:31:20;5.32;;;1.58;;
31618;SDS011;18230;51.502;7.108;2023-07-20T09:36:22;2.50;;;1.50;;
31618;SDS011;18230;51.502;7.108;2023-07-20T09:41:23;3.10;;;1.27;;
31618;SDS011;18230;51.502;7.108;2023-07-20T09:46:24;1.50;;;1.25;;
31618;SDS011;18230;51.502;7.108;2023-07-20T09:51:25;5.18;;;1.00;;
31618;SDS011;18230;51.502;7.108;2023-07-20T09:56:26;2.03;;;1.25;;
31618;SDS011;18230;51.502;7.108;2023-07-20T10:01:28;2.33;;;1.30;;
31618;SDS011;18230;51.502;7.108;2023-07-20T10:06:31;1.67;;;1.13;;
31618;SDS011;18230;51.502;7.108;2023-07-20T10:11:34;1.92;;;0.90;;
31618;SDS011;18230;51.502;7.108;2023-07-20T10:16:40;4.00;;;1.45;;
31618;SDS011;18230;51.502;7.108;2023-07-20T10:21:48;1.60;;;1.10;;
31618;SDS011;18230;51.502;7.108;2023-07-20T10:26:57;1.13;;;0.80;;
31618;SDS011;18230;51.502;7.108;2023-07-20T10:31:58;1.20;;;1.00;;
31618;SDS011;18230;51.502;7.108;2023-07-20T10:36:59;3.78;;;1.25;;
31618;SDS011;18230;51.502;7.108;2023-07-20T10:42:03;2.13;;;1.33;;
31618;SDS011;18230;51.502;7.108;2023-07-20T10:47:11;4.00;;;1.30;;
31618;SDS011;18230;51.502;7.108;2023-07-20T10:52:13;3.03;;;1.08;;
31618;SDS011;18230;51.502;7.108;2023-07-20T10:57:32;1.17;;;0.80;;
31618;SDS011;18230;51.502;7.108;2023-07-20T11:02:41;2.13;;;0.88;;
31618;SDS011;18230;51.502;7.108;2023-07-20T11:07:44;2.30;;;1.10;;
31618;SDS011;18230;51.502;7.108;2023-07-20T11:13:21;2.10;;;1.10;;
31618;SDS011;18230;51.502;7.108;2023-07-20T11:18:16;1.38;;;1.00;;
31618;SDS011;18230;51.502;7.108;2023-07-20T11:23:17;1.70;;;0.90;;
31618;SDS011;18230;51.502;7.108;2023-07-20T11:28:19;12.65;;;2.10;;
31618;SDS011;18230;51.502;7.108;2023-07-20T11:33:20;2.20;;;1.10;;
31618;SDS011;18230;51.502;7.108;2023-07-20T11:38:20;1.95;;;1.52;;
31618;SDS011;18230;51.502;7.108;2023-07-20T11:43:21;2.10;;;1.40;;
31618;SDS011;18230;51.502;7.108;2023-07-20T11:48:24;1.30;;;1.20;;
31618;SDS011;18230;51.502;7.108;2023-07-20T11:53:24;2.63;;;1.20;;
31618;SDS011;18230;51.502;7.108;2023-07-20T11:58:27;1.55;;;1.00;;
31618;SDS011;18230;51.502;7.108;2023-07-20T12:03:28;1.63;;;0.98;;
31618;SDS011;18230;51.502;7.108;2023-07-20T12:08:30;2.30;;;1.00;;
31618;SDS011;18230;51.502;7.108;2023-07-20T12:13:42;1.48;;;1.02;;
31618;SDS011;18230;51.502;7.108;2023-07-20T12:18:44;1.88;;;1.08;;
31618;SDS011;18230;51.502;7.108;2023-07-20T12:23:45;1.92;;;1.15;;
31618;SDS011;18230;51.502;7.108;2023-07-20T12:28:45;1.83;;;1.17;;
31618;SDS011;18230;51.502;7.108;2023-07-20T12:33:46;1.30;;;0.90;;
31618;SDS011;18230;51.502;7.108;2023-07-20T12:38:47;4.50;;;1.38;;
31618;SDS011;18230;51.502;7.108;2023-07-20T12:43:48;3.70;;;1.23;;
31618;SDS011;18230;51.502;7.108;2023-07-20T12:48:49;2.00;;;1.50;;
31618;SDS011;18230;51.502;7.108;2023-07-20T12:53:50;3.03;;;1.42;;
31618;SDS011;18230;51.502;7.108;2023-07-20T12:58:51;2.17;;;1.20;;
31618;SDS011;18230;51.502;7.108;2023-07-20T13:03:51;2.17;;;1.30;;
31618;SDS011;18230;51.502;7.108;2023-07-20T13:08:53;2.22;;;1.38;;
31618;SDS011;18230;51.502;7.108;2023-07-20T13:13:56;1.60;;;1.15;;
31618;SDS011;18230;51.502;7.108;2023-07-20T13:18:57;1.48;;;0.90;;
31618;SDS011;18230;51.502;7.108;2023-07-20T13:23:57;0.63;;;0.60;;
31618;SDS011;18230;51.502;7.108;2023-07-20T13:28:58;2.92;;;1.13;;
31618;SDS011;18230;51.502;7.108;2023-07-20T13:33:59;1.52;;;1.00;;
31618;SDS011;18230;51.502;7.108;2023-07-20T13:38:59;4.20;;;1.20;;
31618;SDS011;18230;51.502;7.108;2023-07-20T13:44:00;3.25;;;1.40;;
31618;SDS011;18230;51.502;7.108;2023-07-20T13:49:01;2.38;;;1.10;;
31618;SDS011;18230;51.502;7.108;2023-07-20T13:54:01;1.65;;;1.10;;
31618;SDS011;18230;51.502;7.108;2023-07-20T13:59:02;1.75;;;1.20;;
31618;SDS011;18230;51.502;7.108;2023-07-20T14:04:03;1.90;;;1.20;;
31618;SDS011;18230;51.502;7.108;2023-07-20T14:09:04;2.40;;;1.25;;
31618;SDS011;18230;51.502;7.108;2023-07-20T14:14:04;2.08;;;1.10;;
31618;SDS011;18230;51.502;7.108;2023-07-20T14:19:05;4.22;;;1.70;;
31618;SDS011;18230;51.502;7.108;2023-07-20T14:24:06;1.65;;;1.20;;
31618;SDS011;18230;51.502;7.108;2023-07-20T14:29:06;2.08;;;1.23;;
31618;SDS011;18230;51.502;7.108;2023-07-20T14:34:08;3.92;;;1.40;;
31618;SDS011;18230;51.502;7.108;2023-07-20T14:39:09;2.70;;;1.50;;
31618;SDS011;18230;51.502;7.108;2023-07-20T14:44:10;1.58;;;1.00;;
31618;SDS011;18230;51.502;7.108;2023-07-20T14:49:10;1.15;;;1.05;;
31618;SDS011;18230;51.502;7.108;2023-07-20T14:54:11;3.65;;;1.70;;
31618;SDS011;18230;51.502;7.108;2023-07-20T14:59:12;1.50;;;1.38;;
31618;SDS011;18230;51.502;7.108;2023-07-20T15:04:14;2.72;;;1.50;;
31618;SDS011;18230;51.502;7.108;2023-07-20T15:09:15;3.38;;;1.70;;
31618;SDS011;18230;51.502;7.108;2023-07-20T15:14:15;1.90;;;1.35;;
31618;SDS011;18230;51.502;7.108;2023-07-20T15:19:16;2.78;;;1.60;;
31618;SDS011;18230;51.502;7.108;2023-07-20T15:24:17;1.85;;;1.60;;
31618;SDS011;18230;51.502;7.108;2023-07-20T15:29:17;4.75;;;1.50;;
31618;SDS011;18230;51.502;7.108;2023-07-20T15:34:18;3.38;;;1.50;;
31618;SDS011;18230;51.502;7.108;2023-07-20T15:39:19;3.03;;;1.50;;
31618;SDS011;18230;51.502;7.108;2023-07-20T15:44:20;2.10;;;1.45;;
31618;SDS011;18230;51.502;7.108;2023-07-20T15:49:21;2.88;;;1.23;;
31618;SDS011;18230;51.502;7.108;2023-07-20T15:54:23;2.53;;;1.50;;
31618;SDS011;18230;51.502;7.108;2023-07-20T15:59:25;3.88;;;1.40;;
31618;SDS011;18230;51.502;7.108;2023-07-20T16:04:27;2.92;;;1.52;;
31618;SDS011;18230;51.502;7.108;2023-07-20T16:09:30;3.38;;;1.63;;
31618;SDS011;18230;51.502;7.108;2023-07-20T16:14:31;3.25;;;1.50;;
31618;SDS011;18230;51.502;7.108;2023-07-20T16:19:32;2.95;;;1.58;;
31618;SDS011;18230;51.502;7.108;2023-07-20T16:24:33;4.30;;;1.67;;
31618;SDS011;18230;51.502;7.108;2023-07-20T16:29:34;2.38;;;1.50;;
31618;SDS011;18230;51.502;7.108;2023-07-20T16:34:34;4.22;;;1.35;;
31618;SDS011;18230;51.502;7.108;2023-07-20T16:39:35;3.55;;;1.52;;
31618;SDS011;18230;51.502;7.108;2023-07-20T16:44:40;5.82;;;2.00;;
31618;SDS011;18230;51.502;7.108;2023-07-20T16:49:41;2.42;;;1.80;;
31618;SDS011;18230;51.502;7.108;2023-07-20T16:54:41;2.05;;;1.42;;
31618;SDS011;18230;51.502;7.108;2023-07-20T16:59:42;3.42;;;1.42;;
31618;SDS011;18230;51.502;7.108;2023-07-20T17:04:46;2.65;;;1.67;;
31618;SDS011;18230;51.502;7.108;2023-07-20T17:09:48;6.88;;;1.40;;
31618;SDS011;18230;51.502;7.108;2023-07-20T17:14:49;3.00;;;1.42;;
31618;SDS011;18230;51.502;7.108;2023-07-20T17:19:50;3.10;;;1.50;;
31618;SDS011;18230;51.502;7.108;2023-07-20T17:24:50;1.90;;;1.20;;
31618;SDS011;18230;51.502;7.108;2023-07-20T17:29:51;3.03;;;1.30;;
31618;SDS011;18230;51.502;7.108;2023-07-20T17:34:53;1.80;;;1.30;;
31618;SDS011;18230;51.502;7.108;2023-07-20T17:39:55;2.47;;;1.40;;
31618;SDS011;18230;51.502;7.108;2023-07-20T17:44:55;1.48;;;1.15;;
31618;SDS011;18230;51.502;7.108;2023-07-20T17:49:56;8.05;;;1.60;;
31618;SDS011;18230;51.502;7.108;2023-07-20T17:54:58;1.40;;;1.23;;
31618;SDS011;18230;51.502;7.108;2023-07-20T17:59:59;1.80;;;1.50;;
31618;SDS011;18230;51.502;7.108;2023-07-20T18:05:00;3.38;;;1.40;;
31618;SDS011;18230;51.502;7.108;2023-07-20T18:10:01;6.88;;;4.80;;
31618;SDS011;18230;51.502;7.108;2023-07-20T18:15:04;2.60;;;1.70;;
31618;SDS011;18230;51.502;7.108;2023-07-20T18:20:05;1.95;;;1.30;;
31618;SDS011;18230;51.502;7.108;2023-07-20T18:25:07;1.98;;;1.40;;
31618;SDS011;18230;51.502;7.108;2023-07-20T18:30:08;3.42;;;1.48;;
31618;SDS011;18230;51.502;7.108;2023-07-20T18:35:09;2.70;;;1.08;;
31618;SDS011;18230;51.502;7.108;2023-07-20T18:40:11;2.40;;;1.33;;
31618;SDS011;18230;51.502;7.108;2023-07-20T18:45:12;2.50;;;1.30;;
31618;SDS011;18230;51.502;7.108;2023-07-20T18:50:13;2.97;;;1.45;;
31618;SDS011;18230;51.502;7.108;2023-07-20T18:55:14;2.33;;;1.23;;
31618;SDS011;18230;51.502;7.108;2023-07-20T19:00:15;4.15;;;1.42;;
31618;SDS011;18230;51.502;7.108;2023-07-20T19:05:17;3.10;;;1.50;;
31618;SDS011;18230;51.502;7.108;2023-07-20T19:10:19;1.80;;;1.30;;
31618;SDS011;18230;51.502;7.108;2023-07-20T19:15:19;3.95;;;1.50;;
31618;SDS011;18230;51.502;7.108;2023-07-20T19:20:20;6.07;;;1.77;;
31618;SDS011;18230;51.502;7.108;2023-07-20T19:25:21;3.15;;;1.40;;
31618;SDS011;18230;51.502;7.108;2023-07-20T19:30:21;3.63;;;1.58;;
31618;SDS011;18230;51.502;7.108;2023-07-20T19:35:22;2.65;;;1.60;;
31618;SDS011;18230;51.502;7.108;2023-07-20T19:40:23;1.55;;;1.30;;
31618;SDS011;18230;51.502;7.108;2023-07-20T19:45:24;6.00;;;1.70;;
31618;SDS011;18230;51.502;7.108;2023-07-20T19:50:24;4.00;;;1.50;;
31618;SDS011;18230;51.502;7.108;2023-07-20T19:55:26;3.83;;;1.60;;
31618;SDS011;18230;51.502;7.108;2023-07-20T20:00:27;2.25;;;1.55;;
31618;SDS011;18230;51.502;7.108;2023-07-20T20:05:28;3.53;;;1.85;;
31618;SDS011;18230;51.502;7.108;2023-07-20T20:10:28;5.15;;;2.15;;
31618;SDS011;18230;51.502;7.108;2023-07-20T20:15:30;3.50;;;2.22;;
31618;SDS011;18230;51.502;7.108;2023-07-20T20:20:31;3.53;;;2.42;;
31618;SDS011;18230;51.502;7.108;2023-07-20T20:25:35;4.38;;;1.88;;
31618;SDS011;18230;51.502;7.108;2023-07-20T20:30:35;1.63;;;1.23;;
31618;SDS011;18230;51.502;7.108;2023-07-20T20:35:37;1.92;;;1.30;;
31618;SDS011;18230;51.502;7.108;2023-07-20T20:40:44;1.63;;;1.20;;
31618;SDS011;18230;51.502;7.108;2023-07-20T20:45:48;1.80;;;1.30;;
31618;SDS011;18230;51.502;7.108;2023-07-20T20:50:50;2.45;;;1.15;;
31618;SDS011;18230;51.502;7.108;2023-07-20T20:55:50;3.03;;;1.50;;
31618;SDS011;18230;51.502;7.108;2023-07-20T21:00:51;1.83;;;1.50;;
31618;SDS011;18230;51.502;7.108;2023-07-20T21:05:51;3.38;;;1.80;;
31618;SDS011;18230;51.502;7.108;2023-07-20T21:10:56;4.63;;;2.65;;
31618;SDS011;18230;51.502;7.108;2023-07-20T21:15:58;2.30;;;1.50;;
31618;SDS011;18230;51.502;7.108;2023-07-20T21:20:58;9.98;;;2.00;;
31618;SDS011;18230;51.502;7.108;2023-07-20T21:25:59;3.25;;;1.80;;
31618;SDS011;18230;51.502;7.108;2023-07-20T21:31:00;7.22;;;2.05;;
31618;SDS011;18230;51.502;7.108;2023-07-20T21:36:02;3.22;;;2.13;;
31618;SDS011;18230;51.502;7.108;2023-07-20T21:41:05;5.25;;;3.20;;
31618;SDS011;18230;51.502;7.108;2023-07-20T21:46:06;5.95;;;2.90;;
31618;SDS011;18230;51.502;7.108;2023-07-20T21:51:07;4.93;;;2.72;;
31618;SDS011;18230;51.502;7.108;2023-07-20T21:56:08;5.82;;;2.95;;
31618;SDS011;18230;51.502;7.108;2023-07-20T22:01:09;4.60;;;2.75;;
31618;SDS011;18230;51.502;7.108;2023-07-20T22:06:09;4.13;;;3.15;;
31618;SDS011;18230;51.502;7.108;2023-07-20T22:11:10;5.22;;;2.97;;
31618;SDS011;18230;51.502;7.108;2023-07-20T22:16:11;4.30;;;3.45;;
31618;SDS011;18230;51.502;7.108;2023-07-20T22:21:11;8.70;;;3.33;;
31618;SDS011;18230;51.502;7.108;2023-07-20T22:26:12;4.85;;;3.38;;
31618;SDS011;18230;51.502;7.108;2023-07-20T22:31:13;6.65;;;4.15;;
31618;SDS011;18230;51.502;7.108;2023-07-20T22:36:14;4.38;;;3.78;;
31618;SDS011;18230;51.502;7.108;2023-07-20T22:41:14;4.55;;;3.72;;
31618;SDS011;18230;51.502;7.108;2023-07-20T22:46:15;5.93;;;3.95;;
31618;SDS011;18230;51.502;7.108;2023-07-20T22:51:17;6.22;;;4.20;;
31618;SDS011;18230;51.502;7.108;2023-07-20T22:56:18;5.32;;;3.90;;
31618;SDS011;18230;51.502;7.108;2023-07-20T23:01:18;6.25;;;4.20;;
31618;SDS011;18230;51.502;7.108;2023-07-20T23:06:19;5.50;;;4.82;;
31618;SDS011;18230;51.502;7.108;2023-07-20T23:11:21;6.60;;;4.35;;
31618;SDS011;18230;51.502;7.108;2023-07-20T23:16:23;5.78;;;4.65;;
31618;SDS011;18230;51.502;7.108;2023-07-20T23:21:24;8.65;;;4.90;;
31618;SDS011;18230;51.502;7.108;2023-07-20T23:26:25;6.50;;;4.82;;
31618;SDS011;18230;51.502;7.108;2023-07-20T23:31:26;6.28;;;4.90;;
31618;SDS011;18230;51.502;7.108;2023-07-20T23:36:27;5.80;;;5.18;;
31618;SDS011;18230;51.502;7.108;2023-07-20T23:41:27;5.57;;;4.95;;
31618;SDS011;18230;51.502;7.108;2023-07-20T23:46:28;9.10;;;5.78;;
31618;SDS011;18230;51.502;7.108;2023-07-20T23:51:30;6.47;;;5.47;;
31618;SDS011;18230;51.502;7.108;2023-07-20T23:56:31;6.97;;;5.65;;
